createdAt,value
2022-12-16T00:01:32.617Z,97420.66
2022-12-16T00:04:54.600Z,97412.31
2022-12-16T00:08:16.407Z,97414.72
2022-12-16T00:11:38.254Z,97413.63
2022-12-16T00:15:00.323Z,97425.00
2022-12-16T00:18:36.334Z,97420.28
2022-12-16T00:21:58.381Z,97416.47
2022-12-16T00:25:22.261Z,97426.06
2022-12-16T00:28:47.374Z,97407.56
2022-12-16T00:32:09.268Z,97419.38
2022-12-16T00:35:31.508Z,97426.56
2022-12-16T00:38:53.567Z,97420.94
2022-12-16T00:42:15.437Z,97432.50
2022-12-16T00:45:37.692Z,97399.81
2022-12-16T00:48:59.770Z,97423.66
2022-12-16T00:52:21.543Z,97426.91
2022-12-16T00:55:44.344Z,97432.31
2022-12-16T00:59:06.295Z,97419.84
2022-12-16T01:02:28.339Z,97426.25
2022-12-16T01:05:50.591Z,97451.66
2022-12-16T01:09:12.440Z,97436.41
2022-12-16T01:12:35.450Z,97451.41
2022-12-16T01:16:01.791Z,97450.13
2022-12-16T01:19:23.788Z,97458.63
2022-12-16T01:22:48.726Z,97448.00
2022-12-16T01:26:17.254Z,97469.00
2022-12-16T01:29:39.195Z,97466.25
2022-12-16T01:33:01.003Z,97473.78
2022-12-16T01:36:23.077Z,97480.84
2022-12-16T01:39:45.103Z,97480.53
2022-12-16T01:43:14.057Z,97467.06
2022-12-16T01:46:38.465Z,97488.22
2022-12-16T01:50:11.456Z,97489.53
2022-12-16T01:53:42.379Z,97497.03
2022-12-16T01:57:12.138Z,97503.59
2022-12-16T02:00:38.219Z,97493.38
2022-12-16T02:04:03.338Z,97493.81
2022-12-16T02:07:25.695Z,97501.78
2022-12-16T02:11:17.490Z,97497.50
2022-12-16T02:14:50.358Z,97492.03
2022-12-16T02:18:50.900Z,97498.81
2022-12-16T02:23:05.217Z,97498.72
2022-12-16T02:27:05.144Z,97502.78
2022-12-16T02:30:57.445Z,97503.44
2022-12-16T02:34:37.361Z,97502.69
2022-12-16T02:38:21.703Z,97499.16
2022-12-16T02:42:13.392Z,97500.97
2022-12-16T02:45:37.113Z,97496.59
2022-12-16T02:49:32.073Z,97508.06
2022-12-16T02:52:56.775Z,97504.56
2022-12-16T02:56:21.560Z,97507.50
2022-12-16T03:00:03.950Z,97504.41
2022-12-16T03:04:08.499Z,97513.53
2022-12-16T03:07:36.421Z,97519.88
2022-12-16T03:11:02.764Z,97516.81
2022-12-16T03:14:33.920Z,97495.09
2022-12-16T03:17:59.676Z,97490.69
2022-12-16T03:21:27.935Z,97506.00
2022-12-16T03:24:50.072Z,97506.75
2022-12-16T03:28:24.371Z,97497.38
2022-12-16T03:32:03.166Z,97516.66
2022-12-16T03:35:42.844Z,97517.22
2022-12-16T03:39:08.164Z,97515.63
2022-12-16T03:42:34.776Z,97519.91
2022-12-16T03:46:04.622Z,97534.69
2022-12-16T03:49:26.645Z,97540.00
2022-12-16T03:52:48.616Z,97527.06
2022-12-16T03:56:11.360Z,97546.22
2022-12-16T03:59:34.290Z,97554.84
2022-12-16T04:02:57.293Z,97499.75
2022-12-16T04:06:19.326Z,97544.44
2022-12-16T04:09:41.241Z,97547.63
2022-12-16T04:13:35.514Z,97541.59
2022-12-16T04:17:16.598Z,97555.50
2022-12-16T04:21:07.704Z,97551.97
2022-12-16T04:24:32.658Z,97565.88
2022-12-16T04:27:54.514Z,97562.78
2022-12-16T04:31:16.572Z,97550.09
2022-12-16T04:34:39.507Z,97574.03
2022-12-16T04:38:22.804Z,97559.41
2022-12-16T04:42:03.174Z,97579.66
2022-12-16T04:45:43.812Z,97577.44
2022-12-16T04:49:28.655Z,97577.19
2022-12-16T04:53:12.982Z,97588.31
2022-12-16T04:56:56.332Z,97587.78
2022-12-16T05:00:37.032Z,97597.72
2022-12-16T05:04:28.905Z,97606.66
2022-12-16T05:08:20.085Z,97604.25
2022-12-16T05:12:00.705Z,97613.56
2022-12-16T05:15:42.136Z,97611.31
2022-12-16T05:19:27.041Z,97617.41
2022-12-16T05:23:10.445Z,97623.56
2022-12-16T05:26:52.439Z,97635.81
2022-12-16T05:30:33.986Z,97639.81
2022-12-16T05:34:15.429Z,97643.34
2022-12-16T05:37:55.925Z,97635.25
2022-12-16T05:41:36.202Z,97649.78
2022-12-16T05:45:16.915Z,97650.50
2022-12-16T05:48:58.436Z,97661.06
2022-12-16T05:52:40.184Z,97683.31
2022-12-16T05:56:20.397Z,97673.75
2022-12-16T06:00:01.058Z,97674.16
2022-12-16T06:03:51.014Z,97673.38
2022-12-16T06:07:34.375Z,97687.13
2022-12-16T06:11:14.604Z,97683.69
2022-12-16T06:14:55.254Z,97681.25
2022-12-16T06:18:35.940Z,97680.25
2022-12-16T06:22:19.196Z,97694.63
2022-12-16T06:26:00.091Z,97708.44
2022-12-16T06:29:40.615Z,97708.28
2022-12-16T06:33:22.261Z,97705.84
2022-12-16T06:37:03.035Z,97720.03
2022-12-16T06:40:46.911Z,97723.72
2022-12-16T06:44:28.727Z,97722.28
2022-12-16T06:48:29.087Z,97740.78
2022-12-16T06:52:09.484Z,97748.06
2022-12-16T06:55:50.577Z,97753.63
2022-12-16T06:59:31.499Z,97754.41
2022-12-16T07:03:12.518Z,97754.16
2022-12-16T07:06:53.318Z,97770.78
2022-12-16T07:10:37.365Z,97769.53
2022-12-16T07:14:18.657Z,97761.59
2022-12-16T07:18:04.007Z,97777.75
2022-12-16T07:21:45.609Z,97777.09
2022-12-16T07:25:27.027Z,97793.06
2022-12-16T07:29:09.170Z,97800.59
2022-12-16T07:32:49.796Z,97812.03
2022-12-16T07:36:32.363Z,97811.31
2022-12-16T07:40:12.633Z,97817.91
2022-12-16T07:43:52.793Z,97816.59
2022-12-16T07:47:33.106Z,97832.97
2022-12-16T07:51:19.335Z,97835.66
2022-12-16T07:55:00.517Z,97838.59
2022-12-16T07:58:40.725Z,97842.88
2022-12-16T08:02:20.977Z,97851.25
2022-12-16T08:06:01.691Z,97862.66
2022-12-16T08:09:50.379Z,97860.81
2022-12-16T08:13:31.699Z,97863.41
2022-12-16T08:17:13.567Z,97872.75
2022-12-16T08:20:55.353Z,97875.69
2022-12-16T08:24:36.070Z,97889.00
2022-12-16T08:28:17.212Z,97889.53
2022-12-16T08:31:57.491Z,97888.22
2022-12-16T08:35:39.023Z,97895.53
2022-12-16T08:39:20.472Z,97893.59
2022-12-16T08:43:01.159Z,97904.31
2022-12-16T08:46:42.036Z,97903.06
2022-12-16T08:50:26.125Z,97905.63
2022-12-16T08:54:06.707Z,97893.28
2022-12-16T08:57:47.368Z,97906.19
2022-12-16T09:01:28.230Z,97911.19
2022-12-16T09:05:10.861Z,97911.50
2022-12-16T09:08:51.465Z,97921.78
2022-12-16T09:12:32.030Z,97922.72
2022-12-16T09:16:19.271Z,97933.94
2022-12-16T09:20:00.057Z,97931.78
2022-12-16T09:23:40.709Z,97935.81
2022-12-16T09:27:21.307Z,97929.41
2022-12-16T09:31:02.348Z,97923.19
2022-12-16T09:34:43.197Z,97949.25
2022-12-16T09:38:23.517Z,97933.41
2022-12-16T09:42:22.292Z,97933.63
2022-12-16T09:46:15.124Z,97936.31
2022-12-16T09:50:12.483Z,97940.59
2022-12-16T09:53:56.571Z,97943.28
2022-12-16T09:57:39.136Z,97944.00
2022-12-16T10:01:20.495Z,97950.91
2022-12-16T10:05:10.971Z,97953.09
2022-12-16T10:09:03.525Z,97954.66
2022-12-16T10:13:22.227Z,97960.75
2022-12-16T10:17:32.215Z,97958.56
2022-12-16T10:21:14.149Z,97961.00
2022-12-16T10:25:03.226Z,97970.91
2022-12-16T10:29:04.551Z,97956.66
2022-12-16T10:33:10.053Z,97980.81
2022-12-16T10:36:53.824Z,97980.91
2022-12-16T10:40:39.584Z,97980.44
2022-12-16T10:44:34.561Z,97974.75
2022-12-16T10:48:23.267Z,97961.66
2022-12-16T10:52:08.987Z,97966.28
2022-12-16T10:56:24.092Z,97970.44
2022-12-16T11:00:04.507Z,97971.84
2022-12-16T11:03:49.664Z,97969.78
2022-12-16T11:08:02.916Z,97976.53
2022-12-16T11:11:46.222Z,97979.00
2022-12-16T11:15:45.193Z,97976.28
2022-12-16T11:19:48.885Z,97977.75
2022-12-16T11:23:52.052Z,97975.44
2022-12-16T11:27:42.099Z,97983.03
2022-12-16T11:31:31.550Z,97979.91
2022-12-16T11:35:18.892Z,97984.72
2022-12-16T11:39:07.169Z,97977.59
2022-12-16T11:43:16.736Z,97984.09
2022-12-16T11:46:57.487Z,97979.06
2022-12-16T11:50:45.993Z,97985.78
2022-12-16T11:54:47.683Z,97982.84
2022-12-16T11:58:54.240Z,97987.38
2022-12-16T12:03:08.173Z,97987.66
2022-12-16T12:07:03.447Z,97979.81
2022-12-16T12:11:08.664Z,97981.28
2022-12-16T12:15:06.002Z,97982.28
2022-12-16T12:19:19.932Z,97982.28
2022-12-16T12:23:00.160Z,97990.06
2022-12-16T12:26:53.317Z,97988.25
2022-12-16T12:30:41.060Z,97992.25
2022-12-16T12:34:32.505Z,97984.72
2022-12-16T12:38:27.357Z,97995.94
2022-12-16T12:42:33.214Z,97997.06
2022-12-16T12:46:28.043Z,97995.03
2022-12-16T12:50:46.874Z,98007.16
2022-12-16T12:54:45.174Z,98008.97
2022-12-16T12:58:28.721Z,98015.44
2022-12-16T13:02:12.691Z,98020.59
2022-12-16T13:05:57.558Z,98019.75
2022-12-16T13:09:54.603Z,98027.59
2022-12-16T13:13:53.223Z,98027.31
2022-12-16T13:17:37.943Z,98028.91
2022-12-16T13:21:18.856Z,98026.91
2022-12-16T13:25:08.484Z,98030.03
2022-12-16T13:28:59.936Z,98039.44
2022-12-16T13:32:46.197Z,98025.88
2022-12-16T13:36:31.345Z,98031.22
2022-12-16T13:40:37.579Z,98037.28
2022-12-16T13:44:18.963Z,98042.25
2022-12-16T13:48:01.462Z,98045.72
2022-12-16T13:51:58.285Z,98054.16
2022-12-16T13:55:49.051Z,98050.22
2022-12-16T13:59:43.127Z,98059.66
2022-12-16T14:03:52.124Z,98060.25
2022-12-16T14:07:45.097Z,98060.31
2022-12-16T14:11:45.950Z,98073.84
2022-12-16T14:15:46.208Z,98072.88
2022-12-16T14:19:47.413Z,98082.28
2022-12-16T14:23:57.203Z,98085.19
2022-12-16T14:27:40.900Z,98084.19
2022-12-16T14:31:52.692Z,98088.03
2022-12-16T14:35:42.689Z,98091.28
2022-12-16T14:39:32.241Z,98098.16
2022-12-16T14:43:13.374Z,98116.09
2022-12-16T14:46:54.757Z,98117.19
2022-12-16T14:50:49.148Z,98125.81
2022-12-16T14:54:54.871Z,98127.47
2022-12-16T14:58:39.241Z,98130.31
2022-12-16T15:02:54.194Z,98132.25
2022-12-16T15:06:47.913Z,98129.75
2022-12-16T15:10:33.696Z,98149.81
2022-12-16T15:14:19.021Z,98155.09
2022-12-16T15:18:43.281Z,98163.38
2022-12-16T15:22:23.973Z,98152.56
2022-12-16T15:26:14.730Z,98160.34
2022-12-16T15:30:03.792Z,98179.09
2022-12-16T15:33:53.916Z,98173.16
2022-12-16T15:37:48.293Z,98189.97
2022-12-16T15:41:57.713Z,98192.00
2022-12-16T15:45:51.093Z,98202.03
2022-12-16T15:50:06.457Z,98216.25
2022-12-16T15:53:56.190Z,98218.47
2022-12-16T15:57:52.466Z,98226.88
2022-12-16T16:01:44.462Z,98241.91
2022-12-16T16:05:40.892Z,98239.72
2022-12-16T16:09:47.476Z,98253.81
2022-12-16T16:13:28.532Z,98256.50
2022-12-16T16:17:09.863Z,98260.47
2022-12-16T16:20:50.507Z,98258.03
2022-12-16T16:24:31.228Z,98259.38
2022-12-16T16:28:15.509Z,98271.66
2022-12-16T16:32:10.061Z,98265.25
2022-12-16T16:35:51.658Z,98274.78
2022-12-16T16:39:33.391Z,98279.66
2022-12-16T16:43:13.747Z,98282.84
2022-12-16T16:46:59.981Z,98292.97
2022-12-16T16:50:40.386Z,98297.88
2022-12-16T16:54:21.880Z,98303.94
2022-12-16T16:58:02.747Z,98306.06
2022-12-16T17:01:42.971Z,98302.34
2022-12-16T17:05:25.184Z,98325.13
2022-12-16T17:09:07.618Z,98313.09
2022-12-16T17:12:50.093Z,98327.72
2022-12-16T17:16:33.147Z,98335.84
2022-12-16T17:20:13.442Z,98330.28
2022-12-16T17:23:55.724Z,98335.56
2022-12-16T17:27:42.821Z,98349.94
2022-12-16T17:31:29.723Z,98360.47
2022-12-16T17:35:12.446Z,98362.63
2022-12-16T17:39:13.720Z,98362.34
2022-12-16T17:42:54.839Z,98373.13
2022-12-16T17:46:37.400Z,98376.88
2022-12-16T17:50:19.029Z,98386.72
2022-12-16T17:54:02.056Z,98387.91
2022-12-16T17:57:52.559Z,98386.38
2022-12-16T18:01:32.982Z,98400.78
2022-12-16T18:05:23.147Z,98402.91
2022-12-16T18:09:13.892Z,98412.91
2022-12-16T18:12:54.358Z,98411.34
2022-12-16T18:16:38.526Z,98406.28
2022-12-16T18:20:18.976Z,98418.50
2022-12-16T18:24:03.023Z,98435.88
2022-12-16T18:27:43.644Z,98434.47
2022-12-16T18:31:25.766Z,98435.75
2022-12-16T18:35:06.132Z,98452.28
2022-12-16T18:38:47.153Z,98449.34
2022-12-16T18:42:33.352Z,98453.59
2022-12-16T18:46:14.173Z,98457.97
2022-12-16T18:49:54.945Z,98460.63
2022-12-16T18:53:40.640Z,98470.22
2022-12-16T18:57:27.883Z,98476.88
2022-12-16T19:01:20.519Z,98486.56
2022-12-16T19:05:03.543Z,98487.22
2022-12-16T19:08:47.112Z,98478.81
2022-12-16T19:12:29.391Z,98495.13
2022-12-16T19:16:15.928Z,98487.28
2022-12-16T19:19:56.210Z,98487.28
2022-12-16T19:23:37.774Z,98495.97
2022-12-16T19:27:18.517Z,98491.41
2022-12-16T19:30:58.766Z,98488.00
2022-12-16T19:34:40.494Z,98496.28
2022-12-16T19:38:23.360Z,98505.16
2022-12-16T19:42:04.051Z,98510.94
2022-12-16T19:45:44.678Z,98513.59
2022-12-16T19:49:33.389Z,98520.63
2022-12-16T19:53:14.298Z,98524.03
2022-12-16T19:56:57.739Z,98488.47
2022-12-16T20:00:39.734Z,98523.31
2022-12-16T20:04:20.399Z,98540.56
2022-12-16T20:08:01.718Z,98545.66
2022-12-16T20:11:42.391Z,98541.41
2022-12-16T20:15:23.165Z,98557.06
2022-12-16T20:19:04.537Z,98554.69
2022-12-16T20:22:46.357Z,98561.72
2022-12-16T20:26:28.187Z,98551.16
2022-12-16T20:30:09.310Z,98551.09
2022-12-16T20:33:50.804Z,98566.75
2022-12-16T20:37:31.907Z,98573.19
2022-12-16T20:41:22.752Z,98576.78
2022-12-16T20:45:05.021Z,98578.25
2022-12-16T20:48:45.296Z,98563.31
2022-12-16T20:52:26.116Z,98587.75
2022-12-16T20:56:06.902Z,98595.28
2022-12-16T20:59:56.702Z,98590.28
2022-12-16T21:03:39.279Z,98582.84
2022-12-16T21:07:21.609Z,98601.34
2022-12-16T21:11:05.145Z,98608.44
2022-12-16T21:14:45.862Z,98604.78
2022-12-16T21:18:26.646Z,98610.59
2022-12-16T21:22:08.034Z,98616.84
2022-12-16T21:25:49.973Z,98626.72
2022-12-16T21:29:33.946Z,98631.63
2022-12-16T21:33:23.350Z,98634.72
2022-12-16T21:37:04.239Z,98646.31
2022-12-16T21:40:44.522Z,98648.59
2022-12-16T21:44:24.709Z,98639.72
2022-12-16T21:48:05.662Z,98658.00
2022-12-16T21:51:46.232Z,98648.22
2022-12-16T21:55:27.211Z,98663.84
2022-12-16T21:59:09.443Z,98676.34
2022-12-16T22:02:56.052Z,98676.00
2022-12-16T22:06:36.849Z,98676.63
2022-12-16T22:10:17.031Z,98684.94
2022-12-16T22:13:58.135Z,98694.94
2022-12-16T22:17:38.863Z,98694.88
2022-12-16T22:21:23.239Z,98700.06
2022-12-16T22:25:03.627Z,98698.50
2022-12-16T22:28:44.489Z,98715.81
2022-12-16T22:32:27.774Z,98703.81
2022-12-16T22:36:25.632Z,98733.72
2022-12-16T22:40:06.426Z,98738.84
2022-12-16T22:43:51.317Z,98739.84
2022-12-16T22:47:35.226Z,98740.84
2022-12-16T22:51:21.806Z,98749.47
2022-12-16T22:55:03.174Z,98744.22
2022-12-16T22:58:45.646Z,98757.91
2022-12-16T23:02:26.006Z,98750.38
2022-12-16T23:06:12.015Z,98747.06
2022-12-16T23:09:53.204Z,98742.81
2022-12-16T23:13:38.872Z,98749.63
2022-12-16T23:17:20.650Z,98766.31
2022-12-16T23:21:06.492Z,98760.16
2022-12-16T23:24:50.624Z,98764.00
2022-12-16T23:28:30.725Z,98775.81
2022-12-16T23:32:11.596Z,98769.06
2022-12-16T23:36:00.836Z,98767.50
2022-12-16T23:39:41.628Z,98771.47
2022-12-16T23:43:22.849Z,98766.75
2022-12-16T23:47:04.621Z,98774.25
2022-12-16T23:50:45.094Z,98772.13
2022-12-16T23:54:25.589Z,98762.81
2022-12-16T23:58:05.926Z,98772.78
